sensor_id;sensor_type;location;lat;lon;timestamp;P1;durP1;ratioP1;P2;durP2;ratioP2
11143;SDS011;5626;44.730;10.276;2022-08-19T00:02:09;18.30;;;16.52;;
11143;SDS011;5626;44.730;10.276;2022-08-19T00:04:40;18.13;;;16.42;;
11143;SDS011;5626;44.730;10.276;2022-08-19T00:07:09;18.30;;;16.55;;
11143;SDS011;5626;44.730;10.276;2022-08-19T00:09:39;17.48;;;15.88;;
11143;SDS011;5626;44.730;10.276;2022-08-19T00:12:08;17.15;;;15.60;;
11143;SDS011;5626;44.730;10.276;2022-08-19T00:14:39;17.80;;;15.98;;
11143;SDS011;5626;44.730;10.276;2022-08-19T00:17:08;15.25;;;13.73;;
11143;SDS011;5626;44.730;10.276;2022-08-19T00:19:40;16.20;;;14.65;;
11143;SDS011;5626;44.730;10.276;2022-08-19T00:22:09;15.77;;;14.38;;
11143;SDS011;5626;44.730;10.276;2022-08-19T00:24:39;14.63;;;13.23;;
11143;SDS011;5626;44.730;10.276;2022-08-19T00:27:11;15.02;;;13.73;;
11143;SDS011;5626;44.730;10.276;2022-08-19T00:29:40;15.93;;;14.32;;
11143;SDS011;5626;44.730;10.276;2022-08-19T00:32:11;14.45;;;13.18;;
11143;SDS011;5626;44.730;10.276;2022-08-19T00:34:41;15.35;;;13.95;;
11143;SDS011;5626;44.730;10.276;2022-08-19T00:37:11;15.45;;;13.80;;
11143;SDS011;5626;44.730;10.276;2022-08-19T00:39:40;16.17;;;14.60;;
11143;SDS011;5626;44.730;10.276;2022-08-19T00:42:10;14.90;;;12.93;;
11143;SDS011;5626;44.730;10.276;2022-08-19T00:44:43;12.52;;;11.25;;
11143;SDS011;5626;44.730;10.276;2022-08-19T00:47:14;14.73;;;13.38;;
11143;SDS011;5626;44.730;10.276;2022-08-19T00:49:45;14.70;;;13.30;;
11143;SDS011;5626;44.730;10.276;2022-08-19T00:52:20;14.20;;;12.80;;
11143;SDS011;5626;44.730;10.276;2022-08-19T00:54:55;13.93;;;12.52;;
11143;SDS011;5626;44.730;10.276;2022-08-19T00:57:27;14.70;;;13.20;;
11143;SDS011;5626;44.730;10.276;2022-08-19T01:00:00;13.32;;;12.23;;
11143;SDS011;5626;44.730;10.276;2022-08-19T01:02:32;13.63;;;12.43;;
11143;SDS011;5626;44.730;10.276;2022-08-19T01:05:03;15.52;;;14.02;;
11143;SDS011;5626;44.730;10.276;2022-08-19T01:07:35;14.40;;;12.98;;
11143;SDS011;5626;44.730;10.276;2022-08-19T01:10:09;13.85;;;12.55;;
11143;SDS011;5626;44.730;10.276;2022-08-19T01:12:41;14.88;;;13.38;;
11143;SDS011;5626;44.730;10.276;2022-08-19T01:15:12;13.95;;;12.65;;
11143;SDS011;5626;44.730;10.276;2022-08-19T01:17:46;14.38;;;12.98;;
11143;SDS011;5626;44.730;10.276;2022-08-19T01:20:18;14.95;;;13.45;;
11143;SDS011;5626;44.730;10.276;2022-08-19T01:22:53;13.48;;;12.30;;
11143;SDS011;5626;44.730;10.276;2022-08-19T01:25:24;14.00;;;12.70;;
11143;SDS011;5626;44.730;10.276;2022-08-19T01:27:58;15.07;;;13.30;;
11143;SDS011;5626;44.730;10.276;2022-08-19T01:30:29;14.35;;;12.98;;
11143;SDS011;5626;44.730;10.276;2022-08-19T01:33:01;15.63;;;14.10;;
11143;SDS011;5626;44.730;10.276;2022-08-19T01:35:32;14.50;;;13.10;;
11143;SDS011;5626;44.730;10.276;2022-08-19T01:38:05;15.07;;;13.50;;
11143;SDS011;5626;44.730;10.276;2022-08-19T01:40:39;17.60;;;14.48;;
11143;SDS011;5626;44.730;10.276;2022-08-19T01:43:09;16.45;;;14.85;;
11143;SDS011;5626;44.730;10.276;2022-08-19T01:45:39;17.15;;;15.48;;
11143;SDS011;5626;44.730;10.276;2022-08-19T01:48:09;18.65;;;16.70;;
11143;SDS011;5626;44.730;10.276;2022-08-19T01:50:38;19.33;;;17.20;;
11143;SDS011;5626;44.730;10.276;2022-08-19T01:53:10;19.42;;;16.90;;
11143;SDS011;5626;44.730;10.276;2022-08-19T01:55:41;17.45;;;15.57;;
11143;SDS011;5626;44.730;10.276;2022-08-19T01:58:13;21.45;;;16.52;;
11143;SDS011;5626;44.730;10.276;2022-08-19T02:00:46;19.13;;;16.10;;
11143;SDS011;5626;44.730;10.276;2022-08-19T02:03:16;18.45;;;16.55;;
11143;SDS011;5626;44.730;10.276;2022-08-19T02:05:46;16.30;;;14.45;;
11143;SDS011;5626;44.730;10.276;2022-08-19T02:08:19;18.13;;;14.13;;
11143;SDS011;5626;44.730;10.276;2022-08-19T02:10:49;15.45;;;14.02;;
11143;SDS011;5626;44.730;10.276;2022-08-19T02:13:19;11.60;;;9.48;;
11143;SDS011;5626;44.730;10.276;2022-08-19T02:15:49;5.97;;;5.07;;
11143;SDS011;5626;44.730;10.276;2022-08-19T02:18:19;9.15;;;8.25;;
11143;SDS011;5626;44.730;10.276;2022-08-19T02:20:48;10.60;;;9.00;;
11143;SDS011;5626;44.730;10.276;2022-08-19T02:23:19;9.80;;;8.23;;
11143;SDS011;5626;44.730;10.276;2022-08-19T02:25:49;7.15;;;4.28;;
11143;SDS011;5626;44.730;10.276;2022-08-19T02:28:20;10.25;;;7.90;;
11143;SDS011;5626;44.730;10.276;2022-08-19T02:30:50;11.23;;;7.72;;
11143;SDS011;5626;44.730;10.276;2022-08-19T02:33:19;8.98;;;7.40;;
11143;SDS011;5626;44.730;10.276;2022-08-19T02:35:49;9.05;;;6.25;;
11143;SDS011;5626;44.730;10.276;2022-08-19T02:38:20;7.40;;;5.93;;
11143;SDS011;5626;44.730;10.276;2022-08-19T02:40:57;5.90;;;4.88;;
11143;SDS011;5626;44.730;10.276;2022-08-19T02:43:32;8.35;;;6.85;;
11143;SDS011;5626;44.730;10.276;2022-08-19T02:46:10;9.30;;;7.38;;
11143;SDS011;5626;44.730;10.276;2022-08-19T02:48:41;7.75;;;6.50;;
11143;SDS011;5626;44.730;10.276;2022-08-19T02:51:15;8.65;;;6.43;;
11143;SDS011;5626;44.730;10.276;2022-08-19T02:53:47;6.40;;;4.93;;
11143;SDS011;5626;44.730;10.276;2022-08-19T02:56:17;6.57;;;5.43;;
11143;SDS011;5626;44.730;10.276;2022-08-19T02:58:47;4.57;;;3.72;;
11143;SDS011;5626;44.730;10.276;2022-08-19T03:01:21;4.30;;;3.88;;
11143;SDS011;5626;44.730;10.276;2022-08-19T03:03:51;5.22;;;3.40;;
11143;SDS011;5626;44.730;10.276;2022-08-19T03:06:21;3.70;;;2.35;;
11143;SDS011;5626;44.730;10.276;2022-08-19T03:08:53;2.35;;;1.60;;
11143;SDS011;5626;44.730;10.276;2022-08-19T03:11:24;1.73;;;1.63;;
11143;SDS011;5626;44.730;10.276;2022-08-19T03:13:55;1.58;;;1.23;;
11143;SDS011;5626;44.730;10.276;2022-08-19T03:16:27;1.30;;;1.20;;
11143;SDS011;5626;44.730;10.276;2022-08-19T03:18:58;1.33;;;1.10;;
11143;SDS011;5626;44.730;10.276;2022-08-19T03:21:29;2.03;;;1.20;;
11143;SDS011;5626;44.730;10.276;2022-08-19T03:24:03;3.17;;;1.40;;
11143;SDS011;5626;44.730;10.276;2022-08-19T03:26:37;2.00;;;1.50;;
11143;SDS011;5626;44.730;10.276;2022-08-19T03:29:08;2.28;;;1.52;;
11143;SDS011;5626;44.730;10.276;2022-08-19T03:31:39;2.83;;;1.63;;
11143;SDS011;5626;44.730;10.276;2022-08-19T03:34:13;3.10;;;2.60;;
11143;SDS011;5626;44.730;10.276;2022-08-19T03:36:45;3.03;;;2.72;;
11143;SDS011;5626;44.730;10.276;2022-08-19T03:39:16;2.75;;;2.10;;
11143;SDS011;5626;44.730;10.276;2022-08-19T03:41:47;3.75;;;2.20;;
11143;SDS011;5626;44.730;10.276;2022-08-19T03:44:18;3.03;;;1.92;;
11143;SDS011;5626;44.730;10.276;2022-08-19T03:46:50;1.63;;;1.52;;
11143;SDS011;5626;44.730;10.276;2022-08-19T03:49:23;2.50;;;1.90;;
11143;SDS011;5626;44.730;10.276;2022-08-19T03:51:55;2.30;;;1.63;;
11143;SDS011;5626;44.730;10.276;2022-08-19T03:54:27;2.85;;;1.77;;
11143;SDS011;5626;44.730;10.276;2022-08-19T03:56:57;3.78;;;2.28;;
11143;SDS011;5626;44.730;10.276;2022-08-19T03:59:27;3.28;;;1.92;;
11143;SDS011;5626;44.730;10.276;2022-08-19T04:01:59;3.05;;;1.95;;
11143;SDS011;5626;44.730;10.276;2022-08-19T04:04:30;6.70;;;2.28;;
11143;SDS011;5626;44.730;10.276;2022-08-19T04:07:00;5.57;;;2.60;;
11143;SDS011;5626;44.730;10.276;2022-08-19T04:09:32;4.18;;;2.22;;
11143;SDS011;5626;44.730;10.276;2022-08-19T04:12:03;4.38;;;2.40;;
11143;SDS011;5626;44.730;10.276;2022-08-19T04:14:34;7.90;;;3.20;;
11143;SDS011;5626;44.730;10.276;2022-08-19T04:17:04;7.35;;;2.60;;
11143;SDS011;5626;44.730;10.276;2022-08-19T04:19:34;5.03;;;2.55;;
11143;SDS011;5626;44.730;10.276;2022-08-19T04:22:06;7.88;;;2.70;;
11143;SDS011;5626;44.730;10.276;2022-08-19T04:24:37;4.72;;;2.47;;
11143;SDS011;5626;44.730;10.276;2022-08-19T04:27:06;3.28;;;2.53;;
11143;SDS011;5626;44.730;10.276;2022-08-19T04:29:36;3.60;;;2.08;;
11143;SDS011;5626;44.730;10.276;2022-08-19T04:32:06;6.85;;;2.00;;
11143;SDS011;5626;44.730;10.276;2022-08-19T04:34:36;6.25;;;2.10;;
11143;SDS011;5626;44.730;10.276;2022-08-19T04:37:06;3.90;;;1.90;;
11143;SDS011;5626;44.730;10.276;2022-08-19T04:39:40;5.53;;;2.13;;
11143;SDS011;5626;44.730;10.276;2022-08-19T04:42:27;8.23;;;3.15;;
11143;SDS011;5626;44.730;10.276;2022-08-19T04:45:11;3.63;;;1.95;;
11143;SDS011;5626;44.730;10.276;2022-08-19T04:47:42;3.90;;;1.77;;
11143;SDS011;5626;44.730;10.276;2022-08-19T04:50:13;4.35;;;1.90;;
11143;SDS011;5626;44.730;10.276;2022-08-19T04:52:45;7.30;;;2.70;;
11143;SDS011;5626;44.730;10.276;2022-08-19T04:55:16;7.00;;;2.22;;
11143;SDS011;5626;44.730;10.276;2022-08-19T04:57:46;7.70;;;3.00;;
11143;SDS011;5626;44.730;10.276;2022-08-19T05:00:16;4.82;;;2.20;;
11143;SDS011;5626;44.730;10.276;2022-08-19T05:02:46;4.35;;;2.15;;
11143;SDS011;5626;44.730;10.276;2022-08-19T05:05:16;4.32;;;1.90;;
11143;SDS011;5626;44.730;10.276;2022-08-19T05:07:47;4.60;;;2.13;;
11143;SDS011;5626;44.730;10.276;2022-08-19T05:10:18;2.75;;;2.00;;
11143;SDS011;5626;44.730;10.276;2022-08-19T05:12:48;3.55;;;1.90;;
11143;SDS011;5626;44.730;10.276;2022-08-19T05:15:17;1.40;;;1.30;;
11143;SDS011;5626;44.730;10.276;2022-08-19T05:17:47;2.38;;;1.60;;
11143;SDS011;5626;44.730;10.276;2022-08-19T05:20:30;1.92;;;1.50;;
11143;SDS011;5626;44.730;10.276;2022-08-19T05:23:17;2.45;;;1.40;;
11143;SDS011;5626;44.730;10.276;2022-08-19T05:25:50;1.92;;;1.50;;
11143;SDS011;5626;44.730;10.276;2022-08-19T05:28:20;3.95;;;1.75;;
11143;SDS011;5626;44.730;10.276;2022-08-19T05:30:50;2.65;;;1.60;;
11143;SDS011;5626;44.730;10.276;2022-08-19T05:33:22;2.13;;;1.55;;
11143;SDS011;5626;44.730;10.276;2022-08-19T05:35:52;2.67;;;1.80;;
11143;SDS011;5626;44.730;10.276;2022-08-19T05:38:23;2.38;;;1.40;;
11143;SDS011;5626;44.730;10.276;2022-08-19T05:40:55;2.92;;;1.70;;
11143;SDS011;5626;44.730;10.276;2022-08-19T05:43:25;2.42;;;1.48;;
11143;SDS011;5626;44.730;10.276;2022-08-19T05:45:54;1.67;;;1.50;;
11143;SDS011;5626;44.730;10.276;2022-08-19T05:48:24;1.80;;;1.48;;
11143;SDS011;5626;44.730;10.276;2022-08-19T05:50:54;2.38;;;1.42;;
11143;SDS011;5626;44.730;10.276;2022-08-19T05:53:24;2.35;;;1.52;;
11143;SDS011;5626;44.730;10.276;2022-08-19T05:55:56;2.25;;;1.27;;
11143;SDS011;5626;44.730;10.276;2022-08-19T05:58:25;3.33;;;1.33;;
11143;SDS011;5626;44.730;10.276;2022-08-19T06:00:55;3.65;;;1.42;;
11143;SDS011;5626;44.730;10.276;2022-08-19T06:03:24;1.60;;;1.50;;
11143;SDS011;5626;44.730;10.276;2022-08-19T06:05:55;2.33;;;1.45;;
11143;SDS011;5626;44.730;10.276;2022-08-19T06:08:27;3.30;;;1.88;;
11143;SDS011;5626;44.730;10.276;2022-08-19T06:11:11;2.45;;;1.45;;
11143;SDS011;5626;44.730;10.276;2022-08-19T06:13:42;1.67;;;1.40;;
11143;SDS011;5626;44.730;10.276;2022-08-19T06:16:14;2.00;;;1.55;;
11143;SDS011;5626;44.730;10.276;2022-08-19T06:18:50;1.88;;;1.40;;
11143;SDS011;5626;44.730;10.276;2022-08-19T06:21:21;2.10;;;1.30;;
11143;SDS011;5626;44.730;10.276;2022-08-19T06:23:54;2.20;;;1.98;;
11143;SDS011;5626;44.730;10.276;2022-08-19T06:26:27;2.55;;;1.60;;
11143;SDS011;5626;44.730;10.276;2022-08-19T06:28:57;1.33;;;1.23;;
11143;SDS011;5626;44.730;10.276;2022-08-19T06:31:27;2.53;;;1.35;;
11143;SDS011;5626;44.730;10.276;2022-08-19T06:34:01;1.10;;;1.00;;
11143;SDS011;5626;44.730;10.276;2022-08-19T06:36:32;1.48;;;1.38;;
11143;SDS011;5626;44.730;10.276;2022-08-19T06:39:05;1.60;;;1.13;;
11143;SDS011;5626;44.730;10.276;2022-08-19T06:41:39;1.45;;;1.33;;
11143;SDS011;5626;44.730;10.276;2022-08-19T06:44:17;1.60;;;1.40;;
11143;SDS011;5626;44.730;10.276;2022-08-19T06:46:47;1.88;;;1.65;;
11143;SDS011;5626;44.730;10.276;2022-08-19T06:49:17;1.80;;;1.40;;
11143;SDS011;5626;44.730;10.276;2022-08-19T06:51:47;1.42;;;1.30;;
11143;SDS011;5626;44.730;10.276;2022-08-19T06:54:18;2.55;;;2.05;;
11143;SDS011;5626;44.730;10.276;2022-08-19T06:56:49;2.35;;;1.50;;
11143;SDS011;5626;44.730;10.276;2022-08-19T06:59:20;2.63;;;1.50;;
11143;SDS011;5626;44.730;10.276;2022-08-19T07:01:55;1.13;;;1.10;;
11143;SDS011;5626;44.730;10.276;2022-08-19T07:04:27;1.45;;;1.30;;
11143;SDS011;5626;44.730;10.276;2022-08-19T07:06:59;2.45;;;1.35;;
11143;SDS011;5626;44.730;10.276;2022-08-19T07:09:31;1.88;;;1.25;;
11143;SDS011;5626;44.730;10.276;2022-08-19T07:12:02;1.30;;;1.20;;
11143;SDS011;5626;44.730;10.276;2022-08-19T07:14:34;1.20;;;1.10;;
11143;SDS011;5626;44.730;10.276;2022-08-19T07:17:06;1.40;;;1.15;;
11143;SDS011;5626;44.730;10.276;2022-08-19T07:19:37;2.10;;;1.30;;
11143;SDS011;5626;44.730;10.276;2022-08-19T07:22:09;1.17;;;1.08;;
11143;SDS011;5626;44.730;10.276;2022-08-19T07:24:39;2.25;;;1.20;;
11143;SDS011;5626;44.730;10.276;2022-08-19T07:27:10;3.33;;;1.35;;
11143;SDS011;5626;44.730;10.276;2022-08-19T07:29:42;1.42;;;0.93;;
11143;SDS011;5626;44.730;10.276;2022-08-19T07:32:12;5.30;;;2.53;;
11143;SDS011;5626;44.730;10.276;2022-08-19T07:34:41;2.35;;;1.13;;
11143;SDS011;5626;44.730;10.276;2022-08-19T07:37:13;1.85;;;1.30;;
11143;SDS011;5626;44.730;10.276;2022-08-19T07:39:43;1.25;;;0.80;;
11143;SDS011;5626;44.730;10.276;2022-08-19T07:42:14;1.25;;;1.00;;
11143;SDS011;5626;44.730;10.276;2022-08-19T07:44:44;1.00;;;0.93;;
11143;SDS011;5626;44.730;10.276;2022-08-19T07:47:14;0.93;;;0.93;;
11143;SDS011;5626;44.730;10.276;2022-08-19T07:49:45;1.55;;;0.95;;
11143;SDS011;5626;44.730;10.276;2022-08-19T07:52:15;1.23;;;1.00;;
11143;SDS011;5626;44.730;10.276;2022-08-19T07:54:45;1.95;;;1.17;;
11143;SDS011;5626;44.730;10.276;2022-08-19T07:57:16;2.33;;;1.25;;
11143;SDS011;5626;44.730;10.276;2022-08-19T07:59:49;2.65;;;1.40;;
11143;SDS011;5626;44.730;10.276;2022-08-19T08:02:19;1.95;;;1.33;;
11143;SDS011;5626;44.730;10.276;2022-08-19T08:04:48;1.60;;;1.50;;
11143;SDS011;5626;44.730;10.276;2022-08-19T08:07:35;1.77;;;1.38;;
11143;SDS011;5626;44.730;10.276;2022-08-19T08:10:22;1.88;;;1.48;;
11143;SDS011;5626;44.730;10.276;2022-08-19T08:12:53;2.63;;;1.70;;
11143;SDS011;5626;44.730;10.276;2022-08-19T08:15:23;3.30;;;1.60;;
11143;SDS011;5626;44.730;10.276;2022-08-19T08:17:53;1.77;;;1.52;;
11143;SDS011;5626;44.730;10.276;2022-08-19T08:20:25;2.13;;;1.42;;
11143;SDS011;5626;44.730;10.276;2022-08-19T08:22:54;1.50;;;1.40;;
11143;SDS011;5626;44.730;10.276;2022-08-19T08:25:42;1.48;;;1.35;;
11143;SDS011;5626;44.730;10.276;2022-08-19T08:28:13;1.63;;;1.20;;
11143;SDS011;5626;44.730;10.276;2022-08-19T08:30:43;1.35;;;1.25;;
11143;SDS011;5626;44.730;10.276;2022-08-19T08:33:16;2.95;;;1.30;;
11143;SDS011;5626;44.730;10.276;2022-08-19T08:35:47;1.65;;;1.20;;
11143;SDS011;5626;44.730;10.276;2022-08-19T08:38:17;2.10;;;1.10;;
11143;SDS011;5626;44.730;10.276;2022-08-19T08:40:48;1.88;;;1.20;;
11143;SDS011;5626;44.730;10.276;2022-08-19T08:43:24;1.30;;;1.20;;
11143;SDS011;5626;44.730;10.276;2022-08-19T08:45:59;1.60;;;1.50;;
11143;SDS011;5626;44.730;10.276;2022-08-19T08:48:38;1.73;;;1.30;;
11143;SDS011;5626;44.730;10.276;2022-08-19T08:51:15;1.40;;;1.30;;
11143;SDS011;5626;44.730;10.276;2022-08-19T08:53:49;1.40;;;1.30;;
11143;SDS011;5626;44.730;10.276;2022-08-19T08:56:20;1.90;;;1.42;;
11143;SDS011;5626;44.730;10.276;2022-08-19T08:58:54;1.92;;;1.60;;
11143;SDS011;5626;44.730;10.276;2022-08-19T09:01:28;2.15;;;1.30;;
11143;SDS011;5626;44.730;10.276;2022-08-19T09:03:57;1.33;;;1.20;;
11143;SDS011;5626;44.730;10.276;2022-08-19T09:06:29;0.98;;;0.98;;
11143;SDS011;5626;44.730;10.276;2022-08-19T09:09:09;0.90;;;0.90;;
11143;SDS011;5626;44.730;10.276;2022-08-19T09:11:52;4.90;;;1.48;;
11143;SDS011;5626;44.730;10.276;2022-08-19T09:14:32;1.38;;;1.08;;
11143;SDS011;5626;44.730;10.276;2022-08-19T09:17:18;1.98;;;1.50;;
11143;SDS011;5626;44.730;10.276;2022-08-19T09:20:00;2.78;;;1.42;;
11143;SDS011;5626;44.730;10.276;2022-08-19T09:22:35;1.45;;;1.30;;
11143;SDS011;5626;44.730;10.276;2022-08-19T09:25:07;1.88;;;1.60;;
11143;SDS011;5626;44.730;10.276;2022-08-19T09:27:39;2.65;;;1.90;;
11143;SDS011;5626;44.730;10.276;2022-08-19T09:30:13;2.65;;;1.83;;
11143;SDS011;5626;44.730;10.276;2022-08-19T09:32:44;2.13;;;1.63;;
11143;SDS011;5626;44.730;10.276;2022-08-19T09:35:15;1.60;;;1.50;;
11143;SDS011;5626;44.730;10.276;2022-08-19T09:37:44;2.25;;;1.63;;
11143;SDS011;5626;44.730;10.276;2022-08-19T09:40:14;2.25;;;1.80;;
11143;SDS011;5626;44.730;10.276;2022-08-19T09:42:45;2.50;;;1.60;;
11143;SDS011;5626;44.730;10.276;2022-08-19T09:45:17;6.03;;;1.83;;
11143;SDS011;5626;44.730;10.276;2022-08-19T09:47:50;1.60;;;1.50;;
11143;SDS011;5626;44.730;10.276;2022-08-19T09:50:21;1.60;;;1.50;;
11143;SDS011;5626;44.730;10.276;2022-08-19T09:52:52;1.50;;;1.40;;
11143;SDS011;5626;44.730;10.276;2022-08-19T09:55:22;0.93;;;0.93;;
11143;SDS011;5626;44.730;10.276;2022-08-19T09:57:53;1.42;;;1.13;;
11143;SDS011;5626;44.730;10.276;2022-08-19T10:00:24;1.63;;;1.15;;
11143;SDS011;5626;44.730;10.276;2022-08-19T10:02:54;1.38;;;1.27;;
11143;SDS011;5626;44.730;10.276;2022-08-19T10:05:23;1.25;;;1.13;;
11143;SDS011;5626;44.730;10.276;2022-08-19T10:08:10;1.10;;;1.10;;
11143;SDS011;5626;44.730;10.276;2022-08-19T10:10:40;1.13;;;1.00;;
11143;SDS011;5626;44.730;10.276;2022-08-19T10:13:11;1.15;;;1.00;;
11143;SDS011;5626;44.730;10.276;2022-08-19T10:15:44;1.10;;;1.00;;
11143;SDS011;5626;44.730;10.276;2022-08-19T10:18:14;1.38;;;1.00;;
11143;SDS011;5626;44.730;10.276;2022-08-19T10:20:45;1.70;;;1.20;;
11143;SDS011;5626;44.730;10.276;2022-08-19T10:23:16;1.40;;;1.30;;
11143;SDS011;5626;44.730;10.276;2022-08-19T10:25:47;1.38;;;1.27;;
11143;SDS011;5626;44.730;10.276;2022-08-19T10:28:18;1.38;;;1.27;;
11143;SDS011;5626;44.730;10.276;2022-08-19T10:30:50;1.90;;;1.55;;
11143;SDS011;5626;44.730;10.276;2022-08-19T10:33:19;1.60;;;1.50;;
11143;SDS011;5626;44.730;10.276;2022-08-19T10:35:49;1.50;;;1.40;;
11143;SDS011;5626;44.730;10.276;2022-08-19T10:38:28;2.05;;;1.30;;
11143;SDS011;5626;44.730;10.276;2022-08-19T10:41:05;1.60;;;1.50;;
11143;SDS011;5626;44.730;10.276;2022-08-19T10:43:36;2.55;;;1.40;;
11143;SDS011;5626;44.730;10.276;2022-08-19T10:46:09;1.30;;;1.20;;
11143;SDS011;5626;44.730;10.276;2022-08-19T10:48:40;1.25;;;1.25;;
11143;SDS011;5626;44.730;10.276;2022-08-19T10:51:11;1.27;;;1.23;;
11143;SDS011;5626;44.730;10.276;2022-08-19T10:53:58;1.60;;;1.20;;
11143;SDS011;5626;44.730;10.276;2022-08-19T10:56:29;1.15;;;1.10;;
11143;SDS011;5626;44.730;10.276;2022-08-19T10:59:17;0.95;;;0.93;;
11143;SDS011;5626;44.730;10.276;2022-08-19T11:01:49;1.85;;;1.27;;
11143;SDS011;5626;44.730;10.276;2022-08-19T11:04:20;1.30;;;1.20;;
11143;SDS011;5626;44.730;10.276;2022-08-19T11:06:50;1.45;;;1.08;;
11143;SDS011;5626;44.730;10.276;2022-08-19T11:09:20;1.48;;;1.10;;
11143;SDS011;5626;44.730;10.276;2022-08-19T11:11:56;1.17;;;1.08;;
11143;SDS011;5626;44.730;10.276;2022-08-19T11:14:26;1.00;;;1.00;;
11143;SDS011;5626;44.730;10.276;2022-08-19T11:17:00;1.77;;;1.10;;
11143;SDS011;5626;44.730;10.276;2022-08-19T11:19:29;1.65;;;1.20;;
11143;SDS011;5626;44.730;10.276;2022-08-19T11:21:59;2.00;;;1.20;;
11143;SDS011;5626;44.730;10.276;2022-08-19T11:24:30;1.95;;;1.30;;
11143;SDS011;5626;44.730;10.276;2022-08-19T11:27:01;3.42;;;1.80;;
11143;SDS011;5626;44.730;10.276;2022-08-19T11:29:33;1.42;;;1.20;;
11143;SDS011;5626;44.730;10.276;2022-08-19T11:32:05;1.60;;;0.93;;
11143;SDS011;5626;44.730;10.276;2022-08-19T11:34:37;1.20;;;1.10;;
11143;SDS011;5626;44.730;10.276;2022-08-19T11:37:07;1.30;;;1.20;;
11143;SDS011;5626;44.730;10.276;2022-08-19T11:39:37;1.63;;;1.15;;
11143;SDS011;5626;44.730;10.276;2022-08-19T11:42:06;1.20;;;1.10;;
11143;SDS011;5626;44.730;10.276;2022-08-19T11:44:50;1.20;;;1.10;;
11143;SDS011;5626;44.730;10.276;2022-08-19T11:47:21;1.77;;;1.30;;
11143;SDS011;5626;44.730;10.276;2022-08-19T11:49:51;1.00;;;1.00;;
11143;SDS011;5626;44.730;10.276;2022-08-19T11:52:21;2.10;;;1.20;;
11143;SDS011;5626;44.730;10.276;2022-08-19T11:54:50;1.75;;;1.13;;
11143;SDS011;5626;44.730;10.276;2022-08-19T11:57:20;1.70;;;1.10;;
11143;SDS011;5626;44.730;10.276;2022-08-19T11:59:50;2.10;;;1.20;;
11143;SDS011;5626;44.730;10.276;2022-08-19T12:02:22;1.85;;;1.20;;
11143;SDS011;5626;44.730;10.276;2022-08-19T12:04:53;1.55;;;1.40;;
11143;SDS011;5626;44.730;10.276;2022-08-19T12:07:23;1.65;;;1.50;;
11143;SDS011;5626;44.730;10.276;2022-08-19T12:09:53;1.83;;;1.10;;
11143;SDS011;5626;44.730;10.276;2022-08-19T12:12:23;2.97;;;1.10;;
11143;SDS011;5626;44.730;10.276;2022-08-19T12:14:54;1.20;;;1.10;;
11143;SDS011;5626;44.730;10.276;2022-08-19T12:17:27;1.13;;;1.10;;
11143;SDS011;5626;44.730;10.276;2022-08-19T12:19:58;1.20;;;1.10;;
11143;SDS011;5626;44.730;10.276;2022-08-19T12:22:28;1.58;;;1.10;;
11143;SDS011;5626;44.730;10.276;2022-08-19T12:24:57;1.50;;;1.10;;
11143;SDS011;5626;44.730;10.276;2022-08-19T12:27:28;1.40;;;1.30;;
11143;SDS011;5626;44.730;10.276;2022-08-19T12:29:58;1.27;;;1.17;;
11143;SDS011;5626;44.730;10.276;2022-08-19T12:32:30;1.27;;;1.10;;
11143;SDS011;5626;44.730;10.276;2022-08-19T12:35:00;1.27;;;1.17;;
11143;SDS011;5626;44.730;10.276;2022-08-19T12:37:30;1.30;;;1.20;;
11143;SDS011;5626;44.730;10.276;2022-08-19T12:40:00;1.63;;;1.10;;
11143;SDS011;5626;44.730;10.276;2022-08-19T12:42:30;1.00;;;1.00;;
11143;SDS011;5626;44.730;10.276;2022-08-19T12:44:59;1.55;;;1.17;;
11143;SDS011;5626;44.730;10.276;2022-08-19T12:47:30;1.02;;;1.00;;
11143;SDS011;5626;44.730;10.276;2022-08-19T12:50:00;1.23;;;1.13;;
11143;SDS011;5626;44.730;10.276;2022-08-19T12:52:32;1.38;;;1.27;;
11143;SDS011;5626;44.730;10.276;2022-08-19T12:55:05;1.00;;;1.00;;
11143;SDS011;5626;44.730;10.276;2022-08-19T12:57:36;1.17;;;1.00;;
11143;SDS011;5626;44.730;10.276;2022-08-19T13:00:07;1.13;;;1.13;;
11143;SDS011;5626;44.730;10.276;2022-08-19T13:02:42;1.13;;;1.13;;
11143;SDS011;5626;44.730;10.276;2022-08-19T13:05:16;1.23;;;1.13;;
11143;SDS011;5626;44.730;10.276;2022-08-19T13:07:50;1.00;;;1.00;;
11143;SDS011;5626;44.730;10.276;2022-08-19T13:10:23;1.15;;;1.10;;
11143;SDS011;5626;44.730;10.276;2022-08-19T13:12:55;2.25;;;1.30;;
11143;SDS011;5626;44.730;10.276;2022-08-19T13:15:27;2.20;;;1.27;;
11143;SDS011;5626;44.730;10.276;2022-08-19T13:18:00;1.60;;;1.20;;
11143;SDS011;5626;44.730;10.276;2022-08-19T13:20:29;1.30;;;1.20;;
11143;SDS011;5626;44.730;10.276;2022-08-19T13:22:59;1.20;;;1.15;;
11143;SDS011;5626;44.730;10.276;2022-08-19T13:25:29;1.77;;;1.20;;
11143;SDS011;5626;44.730;10.276;2022-08-19T13:27:59;1.40;;;1.30;;
11143;SDS011;5626;44.730;10.276;2022-08-19T13:30:29;1.10;;;1.10;;
11143;SDS011;5626;44.730;10.276;2022-08-19T13:33:18;1.33;;;1.23;;
11143;SDS011;5626;44.730;10.276;2022-08-19T13:35:48;1.35;;;1.25;;
11143;SDS011;5626;44.730;10.276;2022-08-19T13:38:23;1.20;;;1.10;;
11143;SDS011;5626;44.730;10.276;2022-08-19T13:40:53;1.27;;;1.27;;
11143;SDS011;5626;44.730;10.276;2022-08-19T13:43:26;1.20;;;1.20;;
11143;SDS011;5626;44.730;10.276;2022-08-19T13:45:56;1.25;;;1.20;;
11143;SDS011;5626;44.730;10.276;2022-08-19T13:48:27;1.23;;;1.13;;
11143;SDS011;5626;44.730;10.276;2022-08-19T13:50:58;3.45;;;1.77;;
11143;SDS011;5626;44.730;10.276;2022-08-19T13:53:28;1.35;;;1.20;;
11143;SDS011;5626;44.730;10.276;2022-08-19T13:55:58;1.15;;;1.15;;
11143;SDS011;5626;44.730;10.276;2022-08-19T13:58:28;1.40;;;1.20;;
11143;SDS011;5626;44.730;10.276;2022-08-19T14:00:59;2.03;;;1.40;;
11143;SDS011;5626;44.730;10.276;2022-08-19T14:03:30;1.52;;;1.30;;
11143;SDS011;5626;44.730;10.276;2022-08-19T14:06:01;1.52;;;1.13;;
11143;SDS011;5626;44.730;10.276;2022-08-19T14:08:31;2.05;;;1.20;;
11143;SDS011;5626;44.730;10.276;2022-08-19T14:11:00;3.30;;;1.50;;
11143;SDS011;5626;44.730;10.276;2022-08-19T14:13:30;1.60;;;1.17;;
11143;SDS011;5626;44.730;10.276;2022-08-19T14:16:01;1.27;;;1.10;;
11143;SDS011;5626;44.730;10.276;2022-08-19T14:18:37;1.58;;;1.13;;
11143;SDS011;5626;44.730;10.276;2022-08-19T14:21:08;1.42;;;1.33;;
11143;SDS011;5626;44.730;10.276;2022-08-19T14:23:44;4.00;;;1.88;;
11143;SDS011;5626;44.730;10.276;2022-08-19T14:26:16;3.15;;;1.35;;
11143;SDS011;5626;44.730;10.276;2022-08-19T14:28:47;1.33;;;1.23;;
11143;SDS011;5626;44.730;10.276;2022-08-19T14:31:17;1.95;;;1.20;;
11143;SDS011;5626;44.730;10.276;2022-08-19T14:33:50;1.20;;;1.20;;
11143;SDS011;5626;44.730;10.276;2022-08-19T14:36:21;2.05;;;1.17;;
11143;SDS011;5626;44.730;10.276;2022-08-19T14:38:50;1.33;;;1.20;;
11143;SDS011;5626;44.730;10.276;2022-08-19T14:41:21;1.40;;;1.30;;
11143;SDS011;5626;44.730;10.276;2022-08-19T14:43:52;1.10;;;1.10;;
11143;SDS011;5626;44.730;10.276;2022-08-19T14:46:23;1.40;;;1.30;;
11143;SDS011;5626;44.730;10.276;2022-08-19T14:48:55;1.17;;;1.10;;
11143;SDS011;5626;44.730;10.276;2022-08-19T14:51:25;1.65;;;1.25;;
11143;SDS011;5626;44.730;10.276;2022-08-19T14:53:55;1.50;;;1.40;;
11143;SDS011;5626;44.730;10.276;2022-08-19T14:56:26;1.20;;;1.10;;
11143;SDS011;5626;44.730;10.276;2022-08-19T14:58:57;1.50;;;1.40;;
11143;SDS011;5626;44.730;10.276;2022-08-19T15:01:28;1.55;;;1.42;;
11143;SDS011;5626;44.730;10.276;2022-08-19T15:03:59;1.58;;;1.33;;
11143;SDS011;5626;44.730;10.276;2022-08-19T15:06:29;1.40;;;1.30;;
11143;SDS011;5626;44.730;10.276;2022-08-19T15:08:59;1.40;;;1.30;;
11143;SDS011;5626;44.730;10.276;2022-08-19T15:11:30;1.67;;;1.58;;